Terminal Aerodrome Forecast
Issued by NWS North Platte, NE

Home | Current Version | Previous Version | Text Only | Print | Product List | Glossary On
Versions: 1 2 3 4 5 6 7 8 9 10 11 12 13 14 15 16 17 18
470
FTUS43 KLBF 261604 AAC
TAFLBF
TAF AMD
KLBF 261604Z 2616/2712 02012KT P6SM OVC020
     FM262000 01013KT P6SM BKN035
     FM270500 02006KT P6SM SCT045 BKN100
     FM270900 VRB03KT P6SM SCT100 BKN250=

USA.gov is the U.S. government's official web portal to all federal, state and local government web resources and services.